Time;durP1;ratioP1;P1;durP2;ratioP2;P2;SDS_P1;SDS_P2;PMS_P1;PMS_P2;Temp;Humidity;BMP_temperature;BMP_pressure;BME280_temperature;BME280_humidity;BME280_pressure;Samples;Min_cycle;Max_cycle;Signal;HPM_P1;HPM_P2
2022/04/04 00:00:19;;;;;;;27.40;17.83;;;1.90;99.90;;;;;;5082036;28;20089;-74
2022/04/04 00:02:44;;;;;;;20.75;15.88;;;2.00;99.90;;;;;;5082286;28;20035;-74
2022/04/04 00:05:11;;;;;;;21.77;15.40;;;1.90;99.90;;;;;;5083295;28;20514;-74
2022/04/04 00:07:38;;;;;;;25.25;16.58;;;2.00;99.90;;;;;;5081497;28;20048;-74
2022/04/04 00:10:04;;;;;;;24.02;16.25;;;2.00;99.90;;;;;;5082395;28;20474;-75
2022/04/04 00:12:30;;;;;;;26.35;16.58;;;2.00;99.90;;;;;;5083350;28;20217;-74
2022/04/04 00:14:55;;;;;;;26.60;17.95;;;2.00;99.90;;;;;;5081897;28;20063;-74
2022/04/04 00:17:22;;;;;;;22.00;16.08;;;2.00;99.90;;;;;;5083321;28;20040;-74
2022/04/04 00:19:47;;;;;;;27.98;16.20;;;2.00;99.90;;;;;;5082664;28;20024;-74
2022/04/04 00:22:13;;;;;;;26.58;18.02;;;2.00;99.90;;;;;;5082799;28;20042;-75
2022/04/04 00:24:38;;;;;;;24.17;16.90;;;2.00;99.90;;;;;;5063989;28;20111;-74
2022/04/04 00:27:04;;;;;;;28.73;17.73;;;2.00;99.90;;;;;;5081288;28;20115;-74
2022/04/04 00:29:30;;;;;;;27.73;17.30;;;2.00;99.90;;;;;;5065121;28;20372;-74
2022/04/04 00:31:55;;;;;;;25.25;16.58;;;2.10;99.90;;;;;;5082611;28;20020;-74
2022/04/04 00:34:21;;;;;;;24.15;15.73;;;2.00;99.90;;;;;;5082373;28;20076;-74
2022/04/04 00:36:47;;;;;;;27.48;16.13;;;1.90;99.90;;;;;;5080905;28;20016;-74
2022/04/04 00:39:16;;;;;;;28.90;16.27;;;1.90;99.90;;;;;;5080686;28;20024;-74
2022/04/04 00:41:43;;;;;;;26.75;15.88;;;1.90;99.90;;;;;;5082014;28;20021;-74
2022/04/04 00:44:08;;;;;;;30.38;17.23;;;1.80;99.90;;;;;;5081547;28;20074;-74
2022/04/04 00:46:38;;;;;;;28.02;16.88;;;1.80;99.90;;;;;;5081209;28;20024;-75
2022/04/04 00:49:05;;;;;;;23.83;16.08;;;1.80;99.90;;;;;;5080805;28;20027;-74
2022/04/04 00:51:30;;;;;;;24.73;16.55;;;1.80;99.90;;;;;;5081883;28;20016;-75
2022/04/04 00:53:55;;;;;;;27.65;17.33;;;1.70;99.90;;;;;;5081795;28;20028;-75
2022/04/04 00:56:22;;;;;;;26.73;16.90;;;1.70;99.90;;;;;;5081638;28;20020;-74
2022/04/04 00:58:48;;;;;;;25.65;17.17;;;1.70;99.90;;;;;;5082272;28;20080;-74
2022/04/04 01:01:13;;;;;;;22.88;16.67;;;1.70;99.90;;;;;;5082461;28;20035;-75
2022/04/04 01:03:39;;;;;;;26.50;16.23;;;1.70;99.90;;;;;;5080900;28;20043;-74
2022/04/04 01:06:04;;;;;;;25.63;16.42;;;1.70;99.90;;;;;;5081723;28;20506;-74
2022/04/04 01:08:31;;;;;;;26.70;17.20;;;1.70;99.90;;;;;;5081890;28;20410;-75
2022/04/04 01:10:57;;;;;;;27.58;16.45;;;1.60;99.90;;;;;;5081024;28;20390;-74
2022/04/04 01:13:23;;;;;;;25.40;16.13;;;1.60;99.90;;;;;;5081485;28;20066;-74
2022/04/04 01:15:48;;;;;;;29.60;17.08;;;1.60;99.90;;;;;;5081941;28;20033;-75
2022/04/04 01:18:14;;;;;;;25.42;16.67;;;1.60;99.90;;;;;;5080536;28;20029;-75
2022/04/04 01:20:39;;;;;;;25.67;15.60;;;1.60;99.90;;;;;;5080226;28;20024;-74
2022/04/04 01:23:05;;;;;;;24.67;15.60;;;1.70;99.90;;;;;;5080841;28;20028;-74
2022/04/04 01:25:33;;;;;;;23.30;15.90;;;1.60;99.90;;;;;;5083048;28;20025;-74
2022/04/04 01:28:00;;;;;;;29.40;16.48;;;1.70;99.90;;;;;;5082638;28;20021;-75
2022/04/04 01:30:27;;;;;;;29.52;16.27;;;1.70;99.90;;;;;;5082708;28;20507;-73
2022/04/04 01:32:53;;;;;;;22.73;15.50;;;1.60;99.90;;;;;;5082404;28;20017;-73
2022/04/04 01:35:19;;;;;;;25.70;15.65;;;1.60;99.90;;;;;;5081895;28;20096;-75
2022/04/04 01:37:46;;;;;;;26.38;16.20;;;1.70;99.90;;;;;;5082714;28;20029;-74
2022/04/04 01:40:12;;;;;;;27.95;15.48;;;1.70;99.90;;;;;;5083754;28;20035;-74
2022/04/04 01:42:38;;;;;;;22.88;14.63;;;1.70;99.90;;;;;;5082348;28;20064;-74
2022/04/04 01:45:07;;;;;;;26.95;16.10;;;1.70;99.90;;;;;;5084259;28;20020;-74
2022/04/04 01:47:32;;;;;;;24.25;14.77;;;1.70;99.90;;;;;;5084972;28;20017;-74
2022/04/04 01:49:58;;;;;;;30.33;16.45;;;1.70;99.90;;;;;;5084957;28;20070;-75
2022/04/04 01:52:24;;;;;;;32.70;15.52;;;1.70;99.90;;;;;;5086254;28;20017;-74
2022/04/04 01:54:49;;;;;;;29.55;15.90;;;1.80;99.90;;;;;;5086308;28;20031;-74
2022/04/04 01:57:15;;;;;;;24.95;15.20;;;1.80;99.90;;;;;;5088700;28;20024;-74
2022/04/04 01:59:41;;;;;;;24.83;15.02;;;1.80;99.90;;;;;;5090978;28;20024;-74
2022/04/04 02:02:06;;;;;;;24.73;16.55;;;1.80;99.90;;;;;;5091110;28;20021;-74
2022/04/04 02:04:32;;;;;;;26.02;15.25;;;1.90;99.90;;;;;;5092141;28;20047;-74
2022/04/04 02:06:59;;;;;;;28.10;16.17;;;1.80;99.90;;;;;;5091488;28;20056;-73
2022/04/04 02:09:24;;;;;;;24.25;15.93;;;1.90;99.90;;;;;;5091861;28;20036;-74
2022/04/04 02:11:50;;;;;;;27.17;16.45;;;1.90;99.90;;;;;;5091671;28;20076;-73
2022/04/04 02:14:16;;;;;;;28.15;17.23;;;2.00;99.90;;;;;;5091559;28;20029;-74
2022/04/04 02:16:42;;;;;;;26.65;16.55;;;1.90;99.90;;;;;;5094796;28;20025;-74
2022/04/04 02:19:09;;;;;;;26.98;16.55;;;1.90;99.90;;;;;;5093156;28;20024;-74
2022/04/04 02:21:35;;;;;;;29.77;17.35;;;1.90;99.90;;;;;;5092926;28;20021;-74
2022/04/04 02:24:01;;;;;;;27.30;17.80;;;1.90;99.90;;;;;;5094761;28;20039;-74
2022/04/04 02:26:27;;;;;;;30.67;17.80;;;2.00;99.90;;;;;;5093734;28;20414;-74
2022/04/04 02:28:52;;;;;;;26.52;16.92;;;2.00;99.90;;;;;;5088077;28;20031;-74
2022/04/04 02:31:18;;;;;;;30.70;17.70;;;2.00;99.90;;;;;;5085527;28;20509;-74
2022/04/04 02:33:44;;;;;;;29.98;18.45;;;2.00;99.90;;;;;;5085374;28;20046;-74
2022/04/04 02:36:10;;;;;;;31.65;18.15;;;2.00;99.90;;;;;;5084197;28;20539;-75
2022/04/04 02:38:36;;;;;;;29.88;18.63;;;2.10;99.90;;;;;;5085210;28;20029;-75
2022/04/04 02:41:02;;;;;;;27.98;18.27;;;2.10;99.90;;;;;;5085646;28;20027;-73
2022/04/04 02:43:27;;;;;;;33.35;18.60;;;2.10;99.90;;;;;;5084908;28;20021;-73
2022/04/04 02:45:53;;;;;;;30.50;17.60;;;2.10;99.90;;;;;;5085262;28;20085;-75
2022/04/04 02:48:19;;;;;;;31.27;17.60;;;2.10;99.90;;;;;;5085197;28;20028;-74
2022/04/04 02:50:45;;;;;;;39.17;18.48;;;2.10;99.90;;;;;;5085413;28;20017;-74
2022/04/04 02:53:11;;;;;;;28.38;16.83;;;2.10;99.90;;;;;;5085782;28;20025;-75
2022/04/04 02:58:23;;;;;;;27.77;17.30;;;2.10;99.90;;;;;;5084158;28;20088;-75
2022/04/04 03:00:48;;;;;;;27.48;16.55;;;2.10;99.90;;;;;;5084601;28;20031;-75
2022/04/04 03:03:14;;;;;;;31.40;16.98;;;2.10;99.90;;;;;;5085093;28;20033;-75
2022/04/04 03:05:39;;;;;;;24.67;15.98;;;2.10;99.90;;;;;;5085741;28;20080;-74
2022/04/04 03:08:05;;;;;;;25.88;16.38;;;2.10;99.90;;;;;;5084081;28;20131;-75
2022/04/04 03:10:33;;;;;;;28.77;16.77;;;2.10;99.90;;;;;;5085485;28;20031;-75
2022/04/04 03:13:00;;;;;;;28.70;15.52;;;2.10;99.90;;;;;;5084964;28;20483;-73
2022/04/04 03:15:26;;;;;;;28.50;16.20;;;2.20;99.90;;;;;;5085462;28;20429;-74
2022/04/04 03:17:54;;;;;;;26.80;15.52;;;2.20;99.90;;;;;;5085241;28;20038;-74
2022/04/04 03:20:22;;;;;;;23.88;14.60;;;2.30;99.90;;;;;;5085629;28;20475;-74
2022/04/04 03:22:52;;;;;;;25.73;16.52;;;2.30;99.90;;;;;;5084606;28;20036;-74
2022/04/04 03:25:17;;;;;;;26.45;16.23;;;2.30;99.90;;;;;;5084856;28;20020;-74
2022/04/04 03:27:44;;;;;;;24.90;15.90;;;2.30;99.90;;;;;;5085417;28;20088;-75
2022/04/04 03:30:27;;;;;;;28.60;14.68;;;2.40;99.90;;;;;;5085149;28;20032;-74
2022/04/04 03:32:55;;;;;;;23.40;14.80;;;2.40;99.90;;;;;;5085139;28;20449;-75
2022/04/04 03:35:22;;;;;;;27.08;14.90;;;2.40;99.90;;;;;;5083905;28;20116;-75
2022/04/04 03:37:50;;;;;;;24.90;15.82;;;2.40;99.90;;;;;;5066971;28;20025;-74
2022/04/04 03:40:19;;;;;;;26.55;15.85;;;2.50;99.90;;;;;;5085769;28;20028;-74
2022/04/04 03:42:46;;;;;;;23.27;14.82;;;2.50;99.90;;;;;;5084789;28;20024;-74
2022/04/04 03:45:14;;;;;;;26.67;14.40;;;2.50;99.90;;;;;;5084564;28;20103;-74
2022/04/04 03:47:41;;;;;;;26.92;15.43;;;2.50;99.90;;;;;;5084184;28;20028;-74
2022/04/04 03:50:08;;;;;;;25.55;14.90;;;2.60;99.90;;;;;;5084378;28;20496;-75
2022/04/04 03:52:34;;;;;;;24.33;14.02;;;2.60;99.90;;;;;;5084644;28;20016;-74
2022/04/04 03:55:00;;;;;;;25.08;15.23;;;2.70;99.90;;;;;;5085213;28;20016;-75
2022/04/04 03:57:25;;;;;;;21.77;14.02;;;2.60;99.90;;;;;;5084814;28;20479;-74
2022/04/04 03:59:51;;;;;;;26.75;15.23;;;2.60;99.90;;;;;;5084369;28;20020;-75
2022/04/04 04:02:16;;;;;;;24.40;14.40;;;2.60;99.90;;;;;;5085677;28;20029;-75
2022/04/04 04:04:43;;;;;;;25.88;14.68;;;2.60;99.90;;;;;;5084763;28;20103;-75
2022/04/04 04:07:14;;;;;;;24.77;14.82;;;2.60;99.90;;;;;;5085952;28;20036;-75
2022/04/04 04:09:40;;;;;;;29.70;15.57;;;2.60;99.90;;;;;;5085220;28;20466;-74
2022/04/04 04:12:05;;;;;;;27.38;15.23;;;2.60;99.90;;;;;;5084654;28;20031;-75
2022/04/04 04:14:31;;;;;;;26.13;15.00;;;2.70;99.90;;;;;;5085245;28;20368;-74
2022/04/04 04:16:57;;;;;;;30.85;15.52;;;2.70;99.90;;;;;;5084931;28;20021;-74
2022/04/04 04:22:08;;;;;;;29.48;15.95;;;2.80;99.90;;;;;;5085369;28;20059;-75
2022/04/04 04:24:34;;;;;;;22.88;14.88;;;2.80;99.90;;;;;;5084148;28;20024;-74
2022/04/04 04:26:59;;;;;;;27.15;14.40;;;2.80;99.90;;;;;;5084877;28;20044;-74
2022/04/04 04:29:25;;;;;;;27.88;14.70;;;2.80;99.90;;;;;;5084256;28;20028;-74
2022/04/04 04:31:51;;;;;;;26.73;14.80;;;2.90;99.90;;;;;;5084784;28;20025;-75
2022/04/04 04:34:17;;;;;;;26.77;15.27;;;2.90;99.90;;;;;;5084430;28;20016;-74
2022/04/04 04:36:42;;;;;;;25.02;14.00;;;2.90;99.90;;;;;;5084766;28;20478;-75
2022/04/04 04:39:09;;;;;;;21.70;13.25;;;3.00;99.90;;;;;;5067058;28;20028;-74
2022/04/04 04:41:35;;;;;;;24.85;13.85;;;3.00;99.90;;;;;;5085598;28;20027;-75
2022/04/04 04:44:03;;;;;;;22.63;12.52;;;2.90;99.90;;;;;;5084000;28;20017;-74
2022/04/04 04:46:29;;;;;;;24.13;12.82;;;2.90;99.90;;;;;;5068878;28;20024;-75
2022/04/04 04:48:55;;;;;;;20.73;12.10;;;3.00;99.90;;;;;;5084188;28;20474;-74
2022/04/04 04:51:21;;;;;;;21.75;12.75;;;3.00;99.90;;;;;;5085295;28;20017;-75
2022/04/04 04:53:46;;;;;;;18.23;11.32;;;3.00;99.90;;;;;;5085133;28;20060;-74
2022/04/04 04:56:12;;;;;;;17.42;10.50;;;3.00;99.90;;;;;;5083413;28;20071;-75
2022/04/04 04:58:37;;;;;;;20.05;11.10;;;3.00;99.90;;;;;;5083700;28;20035;-75
2022/04/04 05:01:03;;;;;;;17.58;10.57;;;3.10;99.90;;;;;;5085347;28;20077;-75
2022/04/04 05:03:29;;;;;;;17.92;11.00;;;3.00;99.90;;;;;;5084351;28;20028;-74
2022/04/04 05:05:55;;;;;;;15.82;9.95;;;3.10;99.90;;;;;;5086563;28;20084;-74
2022/04/04 05:08:20;;;;;;;18.45;10.55;;;3.10;99.90;;;;;;5084542;28;20100;-74
2022/04/04 05:10:46;;;;;;;18.58;10.07;;;3.10;99.90;;;;;;5083450;28;20039;-74
2022/04/04 05:13:13;;;;;;;18.17;9.98;;;3.20;99.90;;;;;;5084609;28;20016;-75
2022/04/04 05:15:39;;;;;;;17.67;9.38;;;3.20;99.90;;;;;;5083555;28;20013;-74
2022/04/04 05:18:05;;;;;;;16.48;9.73;;;3.30;99.90;;;;;;5084631;28;20035;-74
2022/04/04 05:20:30;;;;;;;41.45;21.60;;;3.30;99.90;;;;;;5067265;28;20028;-74
2022/04/04 05:22:57;;;;;;;114.80;43.03;;;3.40;99.90;;;;;;5066498;28;20111;-75
2022/04/04 05:25:23;;;;;;;149.63;53.13;;;3.30;99.90;;;;;;5085126;28;20087;-75
2022/04/04 05:27:50;;;;;;;34.15;17.15;;;3.40;99.90;;;;;;5084830;28;20021;-74
2022/04/04 05:30:16;;;;;;;22.73;11.57;;;3.40;99.90;;;;;;5085621;28;20027;-75
2022/04/04 05:32:43;;;;;;;36.80;21.00;;;3.40;99.90;;;;;;5082025;28;20104;-74
2022/04/04 05:35:09;;;;;;;23.92;13.40;;;3.40;99.90;;;;;;5063889;28;20196;-75
2022/04/04 05:37:35;;;;;;;19.13;10.48;;;3.50;99.90;;;;;;5079338;28;20029;-75
2022/04/04 05:40:03;;;;;;;22.65;10.65;;;3.50;99.90;;;;;;5081045;28;20031;-74
2022/04/04 05:42:29;;;;;;;15.55;9.93;;;3.50;99.90;;;;;;5079209;28;20028;-73
2022/04/04 05:44:55;;;;;;;16.95;10.00;;;3.60;99.90;;;;;;5061900;28;20073;-74
2022/04/04 05:47:20;;;;;;;19.45;10.00;;;3.60;99.90;;;;;;5081497;28;20119;-74
2022/04/04 05:49:49;;;;;;;15.50;9.57;;;3.60;99.90;;;;;;5081269;28;20029;-75
2022/04/04 05:52:16;;;;;;;16.55;10.10;;;3.70;99.90;;;;;;5085775;28;20025;-74
2022/04/04 05:54:57;;;;;;;16.30;10.13;;;3.70;99.90;;;;;;5083343;28;20016;-74
2022/04/04 05:57:25;;;;;;;13.85;9.43;;;3.70;99.90;;;;;;5085169;28;20024;-74
2022/04/04 05:59:52;;;;;;;17.05;10.75;;;3.70;99.90;;;;;;5068314;28;20029;-75
2022/04/04 06:02:19;;;;;;;19.52;10.60;;;3.80;99.90;;;;;;5084268;28;20029;-74
2022/04/04 06:04:46;;;;;;;18.55;11.10;;;3.80;99.90;;;;;;5073631;28;20025;-75
2022/04/04 06:07:11;;;;;;;19.35;10.43;;;3.80;99.90;;;;;;5067091;28;20037;-72
2022/04/04 06:09:36;;;;;;;16.88;10.48;;;3.90;99.90;;;;;;5082882;28;20104;-75
2022/04/04 06:12:03;;;;;;;18.90;10.98;;;3.90;99.90;;;;;;5082977;28;20096;-74
2022/04/04 06:14:28;;;;;;;17.40;10.45;;;4.00;99.90;;;;;;5082481;28;20052;-74
2022/04/04 06:16:54;;;;;;;20.60;11.15;;;4.10;99.90;;;;;;5084486;28;20031;-75
2022/04/04 06:19:20;;;;;;;19.83;11.38;;;4.20;99.90;;;;;;5084106;28;20108;-74
2022/04/04 06:21:46;;;;;;;29.30;11.52;;;4.20;99.90;;;;;;5085207;28;20106;-74
2022/04/04 06:24:11;;;;;;;20.92;11.63;;;4.30;99.90;;;;;;5083936;28;20054;-74
2022/04/04 06:26:38;;;;;;;22.17;11.05;;;4.30;99.90;;;;;;5081917;28;20021;-74
2022/04/04 06:29:04;;;;;;;19.13;11.90;;;4.30;99.90;;;;;;5080963;28;20486;-75
2022/04/04 06:31:30;;;;;;;37.00;17.63;;;4.30;99.90;;;;;;5074044;28;20074;-73
2022/04/04 06:33:55;;;;;;;20.48;11.65;;;4.30;99.90;;;;;;5074038;28;20478;-74
2022/04/04 06:36:23;;;;;;;27.95;15.05;;;4.30;99.90;;;;;;5074056;28;20040;-74
2022/04/04 06:38:50;;;;;;;20.55;11.82;;;4.30;99.90;;;;;;5074392;28;20037;-75
2022/04/04 06:41:16;;;;;;;19.15;11.70;;;4.30;99.90;;;;;;5057170;28;20033;-74
2022/04/04 06:43:41;;;;;;;22.98;11.38;;;4.30;99.90;;;;;;5074121;28;20032;-75
2022/04/04 06:46:07;;;;;;;25.13;11.07;;;4.40;99.90;;;;;;5073477;28;20017;-74
2022/04/04 06:48:32;;;;;;;19.98;11.20;;;4.40;99.90;;;;;;5057010;28;20056;-73
2022/04/04 06:51:01;;;;;;;20.23;10.82;;;4.40;99.90;;;;;;5073266;28;20052;-74
2022/04/04 06:53:26;;;;;;;18.33;10.82;;;4.40;99.90;;;;;;5075265;28;20017;-73
2022/04/04 06:55:52;;;;;;;22.50;10.80;;;4.50;99.90;;;;;;5058770;28;20483;-74
2022/04/04 06:58:17;;;;;;;21.70;10.82;;;4.50;99.90;;;;;;5078889;28;20080;-73
2022/04/04 07:00:45;;;;;;;18.67;10.45;;;4.50;99.90;;;;;;5080346;28;20094;-74
2022/04/04 07:03:10;;;;;;;18.85;10.07;;;4.50;99.90;;;;;;5080221;28;20024;-75
2022/04/04 07:05:36;;;;;;;17.33;9.88;;;4.60;99.90;;;;;;5076164;28;20028;-73
2022/04/04 07:08:01;;;;;;;21.80;11.52;;;4.60;99.90;;;;;;5078644;28;20063;-74
2022/04/04 07:10:27;;;;;;;22.48;10.63;;;4.60;99.90;;;;;;5079961;28;20051;-74
2022/04/04 07:12:54;;;;;;;16.33;10.25;;;4.70;99.90;;;;;;5082623;28;20024;-74
2022/04/04 07:15:19;;;;;;;21.05;10.13;;;4.80;99.90;;;;;;5050017;28;21096;-74
2022/04/04 07:17:45;;;;;;;17.73;9.85;;;4.80;99.90;;;;;;5084621;28;20029;-75
2022/04/04 07:20:12;;;;;;;17.98;9.65;;;5.00;99.90;;;;;;5076413;28;20035;-75
2022/04/04 07:22:40;;;;;;;19.83;10.55;;;5.10;99.90;;;;;;5073514;28;20021;-73
2022/04/04 07:25:08;;;;;;;17.33;10.32;;;5.30;99.90;;;;;;5069737;28;20024;-73
2022/04/04 07:27:35;;;;;;;20.33;10.32;;;5.50;99.90;;;;;;5073293;28;20067;-74
2022/04/04 07:30:01;;;;;;;12.48;8.82;;;5.70;99.90;;;;;;5073145;28;20499;-74
2022/04/04 07:32:26;;;;;;;17.05;9.80;;;5.90;99.90;;;;;;5073956;28;20108;-74
2022/04/04 07:34:52;;;;;;;15.05;9.63;;;6.20;99.90;;;;;;5073676;28;20036;-74
2022/04/04 07:37:17;;;;;;;15.55;9.63;;;6.20;99.90;;;;;;5056289;28;20078;-74
2022/04/04 07:39:43;;;;;;;19.40;9.77;;;6.50;99.90;;;;;;5072231;28;20021;-74
2022/04/04 07:42:08;;;;;;;16.25;9.35;;;6.70;99.90;;;;;;5052623;28;20048;-75
2022/04/04 07:44:34;;;;;;;17.42;9.98;;;6.70;99.90;;;;;;5070284;28;20033;-74
2022/04/04 07:47:00;;;;;;;16.88;9.20;;;6.70;99.90;;;;;;5074328;28;20016;-73
2022/04/04 07:49:26;;;;;;;15.63;9.50;;;6.80;99.90;;;;;;5072989;28;20028;-74
2022/04/04 07:51:52;;;;;;;19.05;9.98;;;6.80;99.90;;;;;;5073324;28;20058;-74
2022/04/04 07:54:18;;;;;;;16.50;9.73;;;6.80;99.90;;;;;;5072323;28;20078;-75
2022/04/04 07:56:43;;;;;;;18.38;9.75;;;6.80;99.90;;;;;;5055919;28;20020;-74
2022/04/04 07:59:10;;;;;;;18.88;10.55;;;7.00;99.90;;;;;;5075847;28;20029;-73
2022/04/04 08:01:36;;;;;;;16.05;9.73;;;7.10;99.90;;;;;;5080234;28;20030;-73
2022/04/04 08:04:02;;;;;;;13.65;9.50;;;7.30;99.90;;;;;;5073068;28;20115;-74
2022/04/04 08:06:27;;;;;;;18.27;9.75;;;7.00;99.90;;;;;;5073285;28;20103;-75
2022/04/04 08:08:53;;;;;;;18.13;10.50;;;7.40;99.90;;;;;;5072896;28;20044;-74
2022/04/04 08:11:18;;;;;;;17.98;10.52;;;7.30;99.90;;;;;;5071896;28;20522;-74
2022/04/04 08:13:44;;;;;;;20.23;10.90;;;7.20;99.90;;;;;;5072335;28;20051;-74
2022/04/04 08:16:10;;;;;;;19.38;10.50;;;7.00;99.90;;;;;;5071690;28;20024;-74
2022/04/04 08:18:35;;;;;;;21.63;10.05;;;6.90;99.90;;;;;;5072231;28;20075;-74
2022/04/04 08:21:01;;;;;;;26.83;11.32;;;6.90;99.90;;;;;;5072485;28;20025;-74
2022/04/04 08:23:29;;;;;;;23.05;11.70;;;7.00;99.90;;;;;;5071742;28;20038;-74
2022/04/04 08:25:57;;;;;;;19.13;10.73;;;6.80;99.90;;;;;;5071456;28;20057;-73
2022/04/04 08:28:23;;;;;;;17.60;9.95;;;6.90;99.90;;;;;;5054776;28;20347;-74
2022/04/04 08:30:50;;;;;;;17.15;9.35;;;6.80;99.90;;;;;;5072065;28;20104;-74
2022/04/04 08:33:16;;;;;;;15.68;10.68;;;6.70;99.90;;;;;;5071774;28;20079;-74
2022/04/04 08:35:41;;;;;;;16.63;9.50;;;6.70;99.90;;;;;;5073225;28;20033;-74
2022/04/04 08:38:07;;;;;;;20.17;9.88;;;6.80;99.90;;;;;;5072554;28;20110;-74
2022/04/04 08:40:32;;;;;;;15.80;9.50;;;7.00;99.90;;;;;;5055505;28;20024;-74
2022/04/04 08:43:00;;;;;;;19.83;10.20;;;7.20;99.90;;;;;;5051788;28;20055;-73
2022/04/04 08:45:27;;;;;;;15.15;10.18;;;7.10;99.90;;;;;;5064926;28;20111;-73
2022/04/04 08:47:53;;;;;;;16.02;9.55;;;7.00;99.90;;;;;;5071795;28;20025;-73
2022/04/04 08:50:19;;;;;;;15.35;9.57;;;7.00;99.90;;;;;;5071266;28;20021;-74
2022/04/04 08:52:45;;;;;;;19.42;9.27;;;7.00;99.90;;;;;;5072467;28;20017;-73
2022/04/04 08:55:13;;;;;;;20.35;10.25;;;7.00;99.90;;;;;;5072768;28;20021;-73
2022/04/04 08:57:39;;;;;;;18.10;9.60;;;7.00;99.90;;;;;;5068512;28;20024;-74
2022/04/04 09:00:05;;;;;;;20.73;9.77;;;7.10;99.90;;;;;;5054105;28;20027;-73
2022/04/04 09:02:32;;;;;;;14.60;9.52;;;7.00;99.90;;;;;;5070827;28;20028;-73
2022/04/04 09:05:05;;;;;;;17.67;10.27;;;6.90;99.90;;;;;;5072926;28;20467;-73
2022/04/04 09:07:30;;;;;;;17.27;9.35;;;7.00;99.90;;;;;;5070040;28;20491;-73
2022/04/04 09:09:56;;;;;;;17.70;10.48;;;7.00;99.90;;;;;;5074930;28;20032;-74
2022/04/04 09:12:26;;;;;;;19.17;10.30;;;6.80;99.90;;;;;;5071673;28;20082;-73
2022/04/04 09:14:59;;;;;;;20.58;10.43;;;6.80;99.90;;;;;;5072732;28;20025;-74
2022/04/04 09:17:30;;;;;;;19.25;11.82;;;6.90;99.90;;;;;;5072327;28;20103;-74
2022/04/04 09:19:56;;;;;;;13.63;9.07;;;6.90;99.90;;;;;;5072883;28;20478;-73
2022/04/04 09:22:23;;;;;;;20.33;10.75;;;7.00;99.90;;;;;;5058988;28;20020;-74
2022/04/04 09:24:52;;;;;;;17.98;10.02;;;7.10;99.90;;;;;;5053185;28;20021;-71
2022/04/04 09:27:23;;;;;;;16.55;10.15;;;7.20;99.90;;;;;;5072653;28;20028;-70
2022/04/04 09:29:53;;;;;;;12.90;9.27;;;7.10;99.90;;;;;;5074691;28;20074;-69
2022/04/04 09:32:20;;;;;;;12.75;8.93;;;7.10;99.90;;;;;;5075159;28;20017;-70
2022/04/04 09:35:08;;;;;;;13.85;9.30;;;7.00;99.90;;;;;;5058597;28;20016;-70
2022/04/04 09:37:35;;;;;;;16.90;9.40;;;7.00;99.90;;;;;;5076284;28;20474;-70
2022/04/04 09:40:24;;;;;;;14.75;8.02;;;6.90;99.90;;;;;;5074679;28;20027;-70
2022/04/04 09:45:30;;;;;;;16.02;9.55;;;7.00;99.90;;;;;;5110638;27;20811;-69
2022/04/04 09:47:58;;;;;;;21.38;10.90;;;7.00;99.90;;;;;;5097494;28;20478;-69
2022/04/04 09:50:36;;;;;;;15.45;9.38;;;6.80;99.90;;;;;;5102795;28;20024;-69
2022/04/04 09:53:05;;;;;;;13.40;8.95;;;6.90;99.90;;;;;;5082843;28;20020;-69
2022/04/04 09:55:33;;;;;;;17.27;9.95;;;6.90;99.90;;;;;;5090641;28;20031;-69
2022/04/04 09:58:02;;;;;;;15.48;9.98;;;6.80;99.90;;;;;;5090556;28;20032;-72
2022/04/04 10:00:28;;;;;;;15.00;9.05;;;6.70;99.90;;;;;;5093566;28;20048;-73
2022/04/04 10:02:57;;;;;;;19.05;9.77;;;6.80;99.90;;;;;;5089782;28;20037;-72
2022/04/04 10:05:25;;;;;;;19.92;10.93;;;6.60;99.90;;;;;;5088382;28;20029;-73
2022/04/04 10:07:52;;;;;;;18.13;10.02;;;6.60;99.90;;;;;;5090390;28;20030;-72
2022/04/04 10:10:18;;;;;;;16.15;9.95;;;6.50;99.90;;;;;;5088980;28;20024;-74
2022/04/04 10:12:46;;;;;;;13.60;10.02;;;6.40;99.90;;;;;;5105836;28;20497;-73
2022/04/04 10:15:12;;;;;;;18.40;10.85;;;6.30;99.90;;;;;;5105328;28;20056;-72
2022/04/04 10:17:38;;;;;;;22.00;11.00;;;6.30;99.90;;;;;;5100905;28;20394;-70
2022/04/04 10:20:05;;;;;;;18.83;10.73;;;6.40;99.90;;;;;;5087881;28;20047;-71
2022/04/04 10:22:32;;;;;;;19.42;10.80;;;6.40;99.90;;;;;;5088355;28;20437;-71
2022/04/04 10:25:00;;;;;;;16.58;10.60;;;6.40;99.90;;;;;;5087370;28;20394;-70
2022/04/04 10:27:25;;;;;;;16.63;10.57;;;6.60;99.90;;;;;;5089614;28;20095;-71
2022/04/04 10:30:02;;;;;;;16.40;10.82;;;6.60;99.90;;;;;;5089393;28;20193;-70
2022/04/04 10:32:28;;;;;;;17.02;10.98;;;6.70;99.90;;;;;;5122609;28;20034;-71
2022/04/04 10:34:55;;;;;;;18.20;11.32;;;6.60;99.90;;;;;;5089518;28;20024;-71
2022/04/04 10:37:26;;;;;;;16.50;11.50;;;6.40;99.90;;;;;;5089362;28;20048;-71
2022/04/04 10:39:52;;;;;;;18.60;11.07;;;6.50;99.90;;;;;;5089351;28;20123;-72
2022/04/04 10:42:37;;;;;;;22.65;13.02;;;6.60;99.90;;;;;;5087993;28;20469;-71
2022/04/04 10:45:08;;;;;;;19.83;10.98;;;6.40;99.90;;;;;;5087468;28;20464;-71
2022/04/04 10:47:36;;;;;;;18.23;11.90;;;6.40;99.90;;;;;;5091679;28;20078;-71
2022/04/04 10:50:30;;;;;;;19.45;13.07;;;6.20;99.90;;;;;;5115591;28;20434;-71
2022/04/04 10:52:59;;;;;;;20.83;13.93;;;6.10;99.90;;;;;;5096144;28;20382;-71
2022/04/04 10:55:48;;;;;;;18.90;13.35;;;6.10;99.90;;;;;;5086413;28;20372;-71
2022/04/04 11:01:18;;;;;;;23.13;13.95;;;5.90;99.90;;;;;;5070634;28;20353;-71
2022/04/04 11:09:32;;;;;;;23.73;15.07;;;5.60;99.90;;;;;;5084228;28;20088;-71
2022/04/04 11:12:09;;;;;;;27.10;14.30;;;5.50;99.90;;;;;;5072549;28;20106;-73
2022/04/04 11:17:19;;;;;;;24.73;15.25;;;5.40;99.90;;;;;;5114232;27;20688;-72
2022/04/04 11:19:49;;;;;;;25.17;16.50;;;5.30;99.90;;;;;;5109413;28;20269;-72
2022/04/04 11:22:17;;;;;;;22.17;15.93;;;5.20;99.90;;;;;;5110912;28;20028;-72
2022/04/04 11:24:44;;;;;;;26.48;16.83;;;5.10;99.90;;;;;;5109826;28;20426;-72
2022/04/04 11:27:10;;;;;;;28.80;16.05;;;5.20;99.90;;;;;;5122397;27;20023;-72
2022/04/04 11:29:38;;;;;;;32.85;18.00;;;5.10;99.90;;;;;;5124790;27;20038;-72
2022/04/04 11:32:04;;;;;;;27.10;19.35;;;5.10;99.90;;;;;;5088560;28;20497;-72
2022/04/04 11:34:31;;;;;;;31.17;16.70;;;5.10;99.90;;;;;;5121926;28;20027;-73
2022/04/04 11:36:57;;;;;;;28.58;18.48;;;5.10;99.90;;;;;;5121258;28;20430;-72
2022/04/04 11:39:23;;;;;;;30.83;18.02;;;5.10;99.90;;;;;;5072305;28;20023;-72
2022/04/04 11:41:51;;;;;;;30.40;18.88;;;5.00;99.90;;;;;;5118833;28;20039;-73
2022/04/04 11:44:25;;;;;;;27.38;18.27;;;5.00;99.90;;;;;;5100845;28;20073;-72
2022/04/04 11:47:08;;;;;;;30.63;19.83;;;5.00;99.90;;;;;;5117939;28;20385;-72
2022/04/04 11:49:37;;;;;;;35.22;19.65;;;5.10;99.90;;;;;;5122472;28;20027;-72
2022/04/04 11:52:06;;;;;;;32.35;19.23;;;5.10;99.90;;;;;;5108569;28;20032;-73
2022/04/04 11:54:40;;;;;;;29.02;20.20;;;5.10;99.90;;;;;;5110154;28;20390;-73
2022/04/04 11:57:07;;;;;;;29.35;18.60;;;5.10;99.90;;;;;;5115796;27;20113;-72
2022/04/04 11:59:36;;;;;;;31.30;18.73;;;5.10;99.90;;;;;;5100733;28;20386;-73
2022/04/04 12:02:08;;;;;;;27.60;16.90;;;5.20;99.90;;;;;;5113913;28;20016;-72
2022/04/04 12:04:35;;;;;;;23.75;15.30;;;5.20;99.90;;;;;;5108614;28;20505;-73
2022/04/04 12:07:01;;;;;;;23.83;15.63;;;5.30;99.90;;;;;;5108701;28;20034;-72
2022/04/04 12:09:29;;;;;;;24.45;16.42;;;5.30;99.90;;;;;;5109198;28;20111;-72
2022/04/04 12:12:12;;;;;;;25.95;18.48;;;5.40;99.90;;;;;;5089514;28;20496;-72
2022/04/04 12:14:42;;;;;;;31.35;18.67;;;5.40;99.90;;;;;;5102889;28;20073;-73
2022/04/04 12:17:11;;;;;;;30.42;19.65;;;5.40;99.90;;;;;;5107879;28;20048;-73
2022/04/04 12:19:45;;;;;;;25.65;18.92;;;5.50;99.90;;;;;;5109548;28;20102;-72
2022/04/04 12:25:01;;;;;;;35.58;18.13;;;5.20;99.90;;;;;;5108648;28;20027;-72
2022/04/04 12:27:28;;;;;;;26.73;18.02;;;5.20;99.90;;;;;;5100467;28;20454;-72
2022/04/04 12:29:59;;;;;;;25.88;17.75;;;5.20;99.90;;;;;;5095551;28;20367;-72
2022/04/04 12:32:25;;;;;;;28.38;17.90;;;5.20;99.90;;;;;;5094515;28;20020;-72
2022/04/04 12:34:56;;;;;;;29.60;18.05;;;5.20;99.90;;;;;;5077238;28;20114;-72
2022/04/04 12:37:39;;;;;;;25.70;18.15;;;5.10;99.90;;;;;;5094109;28;20055;-72
2022/04/04 12:42:51;;;;;;;29.35;20.50;;;5.10;99.90;;;;;;5069954;28;20419;-71
2022/04/04 12:45:18;;;;;;;31.67;20.75;;;5.10;99.90;;;;;;5054314;28;20021;-72
2022/04/04 12:50:43;;;;;;;30.58;19.73;;;5.00;99.90;;;;;;5090361;28;20360;-72
2022/04/04 12:53:11;;;;;;;33.78;21.30;;;5.00;99.90;;;;;;5072051;28;20331;-72
2022/04/04 12:55:38;;;;;;;32.72;20.75;;;5.00;99.90;;;;;;5090589;28;20052;-72
2022/04/04 12:58:22;;;;;;;34.00;21.42;;;5.00;99.90;;;;;;5089953;28;20032;-72
2022/04/04 13:00:49;;;;;;;27.30;19.67;;;5.00;99.90;;;;;;5086620;28;20055;-72
2022/04/04 13:03:30;;;;;;;32.22;19.95;;;5.00;99.90;;;;;;5072028;28;20032;-72
2022/04/04 13:05:58;;;;;;;26.40;19.02;;;5.00;99.90;;;;;;5088533;28;20386;-73